Time;durP1;ratioP1;P1;durP2;ratioP2;P2;SDS_P1;SDS_P2;PMS_P1;PMS_P2;Temp;Humidity;BMP_temperature;BMP_pressure;BME280_temperature;BME280_humidity;BME280_pressure;Samples;Min_cycle;Max_cycle;Signal;HPM_P1;HPM_P2
2021/12/24 07:43:38;;;;;;;7.28;2.63;;;9.90;99.90;;;;;;6268375;22;20012;-84
2021/12/24 07:58:49;;;;;;;6.00;2.88;;;9.90;99.90;;;;;;6256079;22;20024;-75
2021/12/24 08:01:39;;;;;;;7.60;2.78;;;10.00;99.90;;;;;;6220244;23;20059;-76
2021/12/24 08:04:30;;;;;;;5.72;2.75;;;10.00;99.90;;;;;;6224658;23;20024;-78
2021/12/24 08:07:08;;;;;;;8.47;2.77;;;9.90;99.90;;;;;;6221394;23;20028;-74
2021/12/24 08:09:37;;;;;;;9.35;3.40;;;10.00;99.90;;;;;;6217843;23;20024;-78
2021/12/24 08:12:25;;;;;;;6.72;2.55;;;10.00;99.90;;;;;;6218119;23;20028;-78
2021/12/24 08:15:39;;;;;;;5.22;2.75;;;9.90;99.90;;;;;;6222550;23;20024;-77
2021/12/24 08:18:14;;;;;;;7.53;3.08;;;10.00;99.90;;;;;;6194682;23;20028;-77
2021/12/24 08:21:10;;;;;;;7.33;2.97;;;10.00;99.90;;;;;;6221456;23;20078;-76
2021/12/24 08:23:41;;;;;;;6.93;2.92;;;9.90;99.90;;;;;;6194038;23;20105;-76
2021/12/24 08:26:10;;;;;;;6.50;3.30;;;9.70;99.90;;;;;;6222634;23;20011;-79
2021/12/24 08:28:38;;;;;;;6.70;3.00;;;9.80;99.90;;;;;;6198852;23;20031;-79
2021/12/24 08:31:09;;;;;;;5.30;2.53;;;9.90;99.90;;;;;;6258053;23;20024;-79
2021/12/24 08:33:47;;;;;;;8.27;3.57;;;9.90;99.90;;;;;;6232161;23;20059;-80
2021/12/24 08:36:15;;;;;;;8.80;3.38;;;9.90;99.90;;;;;;6262624;22;20012;-80
2021/12/24 08:47:55;;;;;;;7.67;2.97;;;10.00;99.90;;;;;;6260867;22;20016;-82
2021/12/24 09:02:17;;;;;;;10.23;3.63;;;10.00;99.90;;;;;;6259109;22;20302;-84
2021/12/24 09:10:44;;;;;;;7.13;2.80;;;10.00;99.90;;;;;;6215097;23;20040;-80
2021/12/24 11:07:38;;;;;;;12.65;5.38;;;9.40;99.90;;;;;;6136512;23;20053;-78
2021/12/24 11:10:12;;;;;;;8.85;4.03;;;9.20;99.90;;;;;;6148504;23;20073;-77
2021/12/24 11:27:34;;;;;;;8.55;4.60;;;9.30;99.90;;;;;;6318618;22;20011;-81
2021/12/24 12:02:54;;;;;;;11.07;4.25;;;9.50;99.90;;;;;;6254400;22;20232;-80
2021/12/24 12:05:32;;;;;;;12.52;4.10;;;9.40;99.90;;;;;;6194608;23;20028;-78
2021/12/24 12:08:33;;;;;;;13.57;4.63;;;9.30;99.90;;;;;;6200346;23;20451;-79
2021/12/24 12:11:15;;;;;;;8.93;4.28;;;9.40;99.90;;;;;;6249868;23;20031;-79
2021/12/24 12:13:51;;;;;;;8.20;3.88;;;9.50;99.90;;;;;;6252314;23;20024;-81
2021/12/24 12:16:22;;;;;;;10.15;4.13;;;9.30;99.90;;;;;;6262757;23;20016;-80
2021/12/24 12:19:30;;;;;;;10.93;4.60;;;9.30;99.90;;;;;;6241629;23;20043;-80
2021/12/24 12:22:13;;;;;;;10.37;3.57;;;9.50;99.90;;;;;;6237658;23;20035;-81
2021/12/24 12:25:12;;;;;;;9.52;4.07;;;9.40;99.90;;;;;;6265808;23;20046;-79
2021/12/24 12:27:49;;;;;;;9.13;4.00;;;9.40;99.90;;;;;;6241632;23;20336;-80
2021/12/24 12:30:53;;;;;;;9.45;4.60;;;9.30;99.90;;;;;;6256457;23;20020;-80
2021/12/24 12:33:31;;;;;;;11.57;4.60;;;9.30;99.90;;;;;;6209062;23;20478;-79
2021/12/24 12:37:07;;;;;;;8.87;3.93;;;9.20;99.90;;;;;;6241112;23;20046;-79
2021/12/24 12:40:06;;;;;;;14.85;5.15;;;9.20;99.90;;;;;;6263388;23;20034;-79
2021/12/24 12:43:12;;;;;;;10.13;4.63;;;9.20;99.90;;;;;;6232432;23;20048;-79
2021/12/24 13:29:36;;;;;;;13.10;5.55;;;9.20;99.90;;;;;;6258079;22;20024;-79
2021/12/24 13:38:26;;;;;;;9.77;4.63;;;9.20;99.90;;;;;;6250260;22;20102;-77
2021/12/24 13:41:36;;;;;;;10.77;4.90;;;9.30;99.90;;;;;;6224718;23;20024;-80
2021/12/24 13:44:05;;;;;;;12.32;5.35;;;9.10;99.90;;;;;;6262831;22;20059;-81
2021/12/24 21:13:24;;;;;;;9.32;3.45;;;9.10;99.90;;;;;;6151992;23;20025;-81
2021/12/24 21:15:54;;;;;;;5.55;2.72;;;9.10;99.90;;;;;;6126083;23;20009;-81
2021/12/24 21:18:25;;;;;;;6.27;2.40;;;8.90;99.90;;;;;;6126380;23;20050;-81
2021/12/24 21:20:57;;;;;;;5.82;2.67;;;8.90;99.90;;;;;;6126126;23;20009;-79
2021/12/24 21:23:36;;;;;;;7.25;3.28;;;9.00;99.90;;;;;;6150294;23;20010;-80
2021/12/24 21:26:10;;;;;;;6.13;2.85;;;8.90;99.90;;;;;;6126108;23;20078;-80
2021/12/24 21:28:42;;;;;;;6.38;3.17;;;8.90;99.90;;;;;;6125800;23;20160;-82
2021/12/24 21:31:13;;;;;;;6.67;3.27;;;9.00;99.90;;;;;;6150853;23;20036;-81
2021/12/24 21:33:42;;;;;;;5.50;3.10;;;8.90;99.90;;;;;;6150940;23;20027;-81
2021/12/24 21:36:12;;;;;;;6.72;3.40;;;8.80;99.90;;;;;;6150942;23;20030;-81
2021/12/24 21:38:48;;;;;;;5.95;2.70;;;8.80;99.90;;;;;;6125969;23;20032;-81
2021/12/24 21:41:19;;;;;;;5.28;2.20;;;8.80;99.90;;;;;;6151579;23;20014;-81
2021/12/24 21:43:49;;;;;;;5.37;2.57;;;9.00;99.90;;;;;;6150501;23;20069;-80
2021/12/24 21:46:19;;;;;;;5.65;2.55;;;9.00;99.90;;;;;;6150305;23;20041;-80
2021/12/24 21:48:48;;;;;;;5.82;2.42;;;9.00;99.90;;;;;;6150486;23;20037;-80
2021/12/24 21:51:17;;;;;;;5.05;2.67;;;8.90;99.90;;;;;;6150487;23;20054;-81
2021/12/24 21:53:46;;;;;;;8.00;2.45;;;8.90;99.90;;;;;;6150485;23;20009;-80
2021/12/24 21:56:14;;;;;;;7.97;2.87;;;9.00;99.90;;;;;;6150223;23;20045;-81
2021/12/24 21:58:43;;;;;;;5.55;2.60;;;8.90;99.90;;;;;;6150635;23;20065;-80
2021/12/24 22:01:14;;;;;;;3.53;1.90;;;8.90;99.90;;;;;;6149883;23;20009;-80
2021/12/24 22:03:53;;;;;;;3.83;2.20;;;9.00;99.90;;;;;;6150843;23;20033;-80
